createdAt,value
2018-10-16T00:01:54.460Z,99.90
2018-10-16T00:07:52.225Z,99.90
2018-10-16T00:10:34.943Z,99.90
2018-10-16T00:13:17.891Z,99.90
2018-10-16T00:18:51.524Z,99.90
2018-10-16T00:27:20.123Z,99.90
2018-10-16T00:30:10.717Z,99.90
2018-10-16T00:32:55.764Z,99.90
2018-10-16T00:35:37.998Z,99.90
2018-10-16T00:38:20.848Z,99.90
2018-10-16T00:41:17.884Z,99.90
2018-10-16T00:46:55.081Z,99.90
2018-10-16T00:49:47.024Z,99.90
2018-10-16T00:52:42.209Z,99.90
2018-10-16T00:55:28.887Z,99.90
2018-10-16T00:58:13.850Z,99.90
2018-10-16T01:00:58.979Z,99.90
2018-10-16T01:03:43.485Z,99.90
2018-10-16T01:09:52.208Z,99.90
2018-10-16T01:12:40.388Z,99.90
2018-10-16T01:15:21.541Z,99.90
2018-10-16T01:18:15.277Z,99.90
2018-10-16T01:20:59.473Z,99.90
2018-10-16T01:23:49.139Z,99.90
2018-10-16T01:26:32.136Z,99.90
2018-10-16T01:29:16.005Z,99.90
2018-10-16T01:31:57.736Z,99.90
2018-10-16T01:34:37.540Z,99.90
2018-10-16T01:37:22.397Z,99.90
2018-10-16T01:42:49.027Z,99.90
2018-10-16T01:45:34.142Z,99.90
2018-10-16T01:48:21.649Z,99.90
2018-10-16T01:51:00.230Z,99.90
2018-10-16T01:56:45.559Z,99.90
2018-10-16T01:59:28.182Z,99.90
2018-10-16T02:02:14.501Z,99.90
2018-10-16T02:04:59.608Z,99.90
2018-10-16T02:10:28.300Z,99.90
2018-10-16T02:13:15.789Z,99.90
2018-10-16T02:15:58.079Z,99.90
2018-10-16T02:18:43.658Z,99.90
2018-10-16T02:21:29.191Z,99.90
2018-10-16T02:24:16.544Z,99.90
2018-10-16T02:26:57.384Z,99.90
2018-10-16T02:29:38.194Z,99.90
2018-10-16T02:32:20.016Z,99.90
2018-10-16T02:35:27.894Z,99.90
2018-10-16T02:38:14.618Z,99.90
2018-10-16T02:40:56.923Z,99.90
2018-10-16T02:43:42.974Z,99.90
2018-10-16T02:46:26.345Z,99.90
2018-10-16T02:49:20.494Z,99.90
2018-10-16T02:52:05.174Z,99.90
2018-10-16T02:54:52.587Z,99.90
2018-10-16T02:57:35.673Z,99.90
2018-10-16T03:00:24.460Z,99.90
2018-10-16T03:03:15.369Z,99.90
2018-10-16T03:08:51.862Z,99.90
2018-10-16T03:11:41.520Z,99.90
2018-10-16T03:14:30.391Z,99.90
2018-10-16T03:17:19.118Z,99.90
2018-10-16T03:19:57.365Z,99.90
2018-10-16T03:25:28.308Z,99.90
2018-10-16T03:28:16.114Z,99.90
2018-10-16T03:30:53.713Z,99.90
2018-10-16T03:33:41.146Z,99.90
2018-10-16T03:39:20.401Z,99.90
2018-10-16T03:42:07.804Z,99.90
2018-10-16T03:44:52.710Z,99.90
2018-10-16T03:47:36.484Z,99.90
2018-10-16T03:50:29.073Z,99.90
2018-10-16T03:53:21.413Z,99.90
2018-10-16T03:56:18.682Z,99.90
2018-10-16T03:59:04.530Z,99.90
2018-10-16T04:01:59.647Z,99.90
2018-10-16T04:04:46.857Z,99.90
2018-10-16T04:07:36.729Z,99.90
2018-10-16T04:10:16.237Z,99.90
2018-10-16T04:12:56.372Z,99.90
2018-10-16T04:15:41.510Z,99.90
2018-10-16T04:18:20.027Z,99.90
2018-10-16T04:21:04.265Z,99.90
2018-10-16T04:23:45.095Z,99.90
2018-10-16T04:26:44.122Z,99.90
2018-10-16T04:29:24.018Z,99.90
2018-10-16T04:32:17.773Z,99.90
2018-10-16T04:35:04.093Z,99.90
2018-10-16T04:37:45.837Z,99.90
2018-10-16T04:40:21.296Z,99.90
2018-10-16T04:42:57.242Z,99.90
2018-10-16T04:45:52.749Z,99.90
2018-10-16T04:48:27.990Z,99.90
2018-10-16T04:51:04.566Z,99.90
2018-10-16T04:53:39.692Z,99.90
2018-10-16T04:56:15.739Z,99.90
2018-10-16T04:58:52.003Z,99.90
2018-10-16T05:01:28.285Z,99.90
2018-10-16T05:04:03.980Z,99.90
2018-10-16T05:06:39.374Z,99.90
2018-10-16T05:09:15.323Z,99.90
2018-10-16T05:11:52.710Z,99.90
2018-10-16T05:14:28.534Z,99.90
2018-10-16T05:17:04.611Z,99.90
2018-10-16T05:19:40.558Z,99.90
2018-10-16T05:22:19.067Z,99.90
2018-10-16T05:24:57.095Z,99.90
2018-10-16T05:27:33.810Z,99.90
2018-10-16T05:30:10.260Z,99.90
2018-10-16T05:32:45.791Z,99.90
2018-10-16T05:35:21.521Z,99.90
2018-10-16T05:40:37.222Z,99.90
2018-10-16T05:43:12.597Z,99.90
2018-10-16T05:45:48.630Z,99.90
2018-10-16T05:48:23.989Z,99.90
2018-10-16T05:50:59.453Z,99.90
2018-10-16T05:53:34.763Z,99.90
2018-10-16T05:56:10.181Z,99.90
2018-10-16T05:58:46.552Z,99.90
2018-10-16T06:01:23.352Z,99.90
2018-10-16T06:04:00.206Z,99.90
2018-10-16T06:06:35.666Z,99.90
2018-10-16T06:09:18.897Z,99.90
2018-10-16T06:11:54.211Z,99.90
2018-10-16T06:14:31.788Z,99.90
2018-10-16T06:17:07.729Z,99.90
2018-10-16T06:22:22.864Z,99.90
2018-10-16T06:24:58.175Z,99.90
2018-10-16T06:27:34.426Z,99.90
2018-10-16T06:30:11.463Z,99.90
2018-10-16T06:32:48.942Z,99.90
2018-10-16T06:35:26.097Z,99.90
2018-10-16T06:38:03.922Z,99.90
2018-10-16T06:40:39.225Z,99.90
2018-10-16T06:43:16.642Z,99.90
2018-10-16T06:45:54.125Z,99.90
2018-10-16T06:48:31.833Z,99.90
2018-10-16T06:51:10.355Z,99.90
2018-10-16T06:53:47.418Z,99.90
2018-10-16T06:59:03.034Z,99.90
2018-10-16T07:01:40.998Z,99.90
2018-10-16T07:04:19.276Z,99.90
2018-10-16T07:06:57.523Z,99.90
2018-10-16T07:09:34.248Z,99.90
2018-10-16T07:12:09.666Z,99.90
2018-10-16T07:14:48.943Z,99.90
2018-10-16T07:17:24.424Z,99.90
2018-10-16T07:22:40.873Z,99.90
2018-10-16T07:25:15.759Z,99.90
2018-10-16T07:27:54.091Z,99.90
2018-10-16T07:30:28.665Z,99.90
2018-10-16T07:33:03.939Z,99.90
2018-10-16T07:35:38.692Z,99.90
2018-10-16T07:38:13.934Z,99.90
2018-10-16T07:40:48.599Z,99.90
2018-10-16T07:43:23.142Z,99.90
2018-10-16T07:45:57.903Z,99.90
2018-10-16T07:48:32.830Z,99.90
2018-10-16T07:51:10.519Z,99.90
2018-10-16T07:53:46.100Z,99.90
2018-10-16T07:56:21.983Z,99.90
2018-10-16T07:58:56.431Z,99.90
2018-10-16T08:01:32.381Z,99.90
2018-10-16T08:04:08.527Z,99.90
2018-10-16T08:06:43.445Z,99.90
2018-10-16T08:09:18.564Z,99.90
2018-10-16T08:11:53.470Z,99.90
2018-10-16T08:14:28.117Z,99.90
2018-10-16T08:17:04.955Z,99.90
2018-10-16T08:19:39.618Z,99.90
2018-10-16T08:22:14.294Z,99.90
2018-10-16T08:24:48.984Z,99.90
2018-10-16T08:27:23.677Z,99.90
2018-10-16T08:29:58.469Z,99.90
2018-10-16T08:32:33.442Z,99.90
2018-10-16T08:35:08.817Z,99.90
2018-10-16T08:37:53.810Z,99.90
2018-10-16T08:40:31.382Z,99.90
2018-10-16T08:43:30.628Z,99.90
2018-10-16T08:46:17.000Z,99.90
2018-10-16T08:49:03.275Z,99.90
2018-10-16T08:51:42.950Z,99.90
2018-10-16T08:54:18.097Z,99.90
2018-10-16T08:56:53.075Z,99.90
2018-10-16T08:59:27.831Z,99.90
2018-10-16T09:02:02.975Z,99.90
2018-10-16T09:04:37.451Z,99.90
2018-10-16T09:07:13.804Z,99.90
2018-10-16T09:09:48.296Z,99.90
2018-10-16T09:12:22.919Z,99.90
2018-10-16T09:14:57.980Z,99.90
2018-10-16T09:17:32.860Z,99.90
2018-10-16T09:20:09.402Z,99.90
2018-10-16T09:22:44.205Z,99.90
2018-10-16T09:25:19.098Z,99.90
2018-10-16T09:27:54.367Z,99.90
2018-10-16T09:30:29.163Z,99.90
2018-10-16T09:33:04.951Z,99.90
2018-10-16T09:35:40.631Z,99.90
2018-10-16T09:38:15.450Z,99.90
2018-10-16T09:40:50.655Z,99.90
2018-10-16T09:43:25.516Z,99.90
2018-10-16T09:46:00.449Z,99.90
2018-10-16T09:48:35.281Z,99.90
2018-10-16T09:51:10.798Z,99.90
2018-10-16T09:53:45.560Z,99.90
2018-10-16T09:56:20.157Z,99.90
2018-10-16T09:58:55.625Z,99.90
2018-10-16T10:01:51.990Z,99.90
2018-10-16T10:04:26.711Z,99.90
2018-10-16T10:07:01.428Z,99.90
2018-10-16T10:09:36.031Z,99.90
2018-10-16T10:12:10.639Z,99.90
2018-10-16T10:14:45.549Z,99.90
2018-10-16T10:17:21.407Z,99.90
2018-10-16T10:19:57.117Z,99.90
2018-10-16T10:22:33.192Z,99.90
2018-10-16T10:25:08.583Z,99.90
2018-10-16T10:27:43.584Z,99.90
2018-10-16T10:30:18.390Z,99.90
2018-10-16T10:32:55.357Z,99.90
2018-10-16T10:35:31.421Z,99.90
2018-10-16T10:38:10.552Z,99.90
2018-10-16T10:40:45.544Z,99.90
2018-10-16T10:43:21.523Z,99.90
2018-10-16T10:45:56.545Z,99.90
2018-10-16T10:48:36.015Z,99.90
2018-10-16T10:51:11.739Z,99.90
2018-10-16T10:53:46.130Z,99.90
2018-10-16T10:56:20.627Z,99.90
2018-10-16T10:58:57.181Z,99.90
2018-10-16T11:01:32.465Z,99.90
2018-10-16T11:04:07.406Z,99.90
2018-10-16T11:06:44.521Z,99.90
2018-10-16T11:09:19.212Z,99.90
2018-10-16T11:11:55.754Z,99.90
2018-10-16T11:14:30.626Z,98.40
2018-10-16T11:17:06.031Z,97.50
2018-10-16T11:19:40.589Z,97.00
2018-10-16T11:22:15.829Z,97.30
2018-10-16T11:24:50.522Z,98.20
2018-10-16T11:27:25.496Z,97.80
2018-10-16T11:30:00.353Z,96.80
2018-10-16T11:32:35.015Z,97.70
2018-10-16T11:35:10.913Z,98.00
2018-10-16T11:37:47.661Z,96.60
2018-10-16T11:40:23.627Z,96.70
2018-10-16T11:42:59.320Z,97.40
2018-10-16T11:45:34.040Z,96.00
2018-10-16T11:48:08.958Z,96.20
2018-10-16T11:50:47.043Z,96.60
2018-10-16T11:53:22.588Z,95.90
2018-10-16T11:55:57.364Z,96.40
2018-10-16T11:58:31.823Z,95.40
2018-10-16T12:01:15.819Z,95.10
2018-10-16T12:07:07.689Z,94.60
2018-10-16T12:09:42.057Z,94.30
2018-10-16T12:12:17.020Z,93.80
2018-10-16T12:14:51.612Z,94.10
2018-10-16T12:17:30.790Z,94.30
2018-10-16T12:20:10.207Z,92.90
2018-10-16T12:22:44.768Z,93.00
2018-10-16T12:25:19.353Z,92.10
2018-10-16T12:27:53.907Z,91.80
2018-10-16T12:30:30.211Z,92.50
2018-10-16T12:33:05.977Z,91.80
2018-10-16T12:35:42.022Z,91.80
2018-10-16T12:38:16.942Z,90.60
2018-10-16T12:40:53.648Z,89.80
2018-10-16T12:43:29.129Z,89.00
2018-10-16T12:46:04.274Z,90.00
2018-10-16T12:48:38.866Z,85.90
2018-10-16T12:51:14.461Z,85.80
2018-10-16T12:53:48.996Z,86.20
2018-10-16T12:56:23.828Z,80.10
2018-10-16T12:59:00.189Z,81.20
2018-10-16T13:01:34.796Z,82.90
2018-10-16T13:04:09.964Z,79.30
2018-10-16T13:06:44.852Z,79.60
2018-10-16T13:09:19.508Z,78.60
2018-10-16T13:11:54.307Z,74.10
2018-10-16T13:14:28.914Z,73.60
2018-10-16T13:17:03.630Z,74.70
2018-10-16T13:19:38.236Z,72.10
2018-10-16T13:22:13.513Z,72.30
2018-10-16T13:24:48.889Z,72.30
2018-10-16T13:27:23.590Z,71.50
2018-10-16T13:29:58.207Z,72.10
2018-10-16T13:32:33.384Z,71.20
2018-10-16T13:35:10.877Z,67.10
2018-10-16T13:37:46.141Z,67.40
2018-10-16T13:40:20.756Z,65.50
2018-10-16T13:42:55.565Z,66.60
2018-10-16T13:45:30.264Z,68.00
2018-10-16T13:48:06.075Z,69.40
2018-10-16T13:50:40.922Z,70.90
2018-10-16T13:53:15.800Z,69.80
2018-10-16T13:55:50.204Z,69.20
2018-10-16T13:58:25.237Z,68.50
2018-10-16T14:00:59.875Z,69.30
2018-10-16T14:03:35.391Z,70.60
2018-10-16T14:06:16.246Z,73.20
2018-10-16T14:08:53.935Z,72.60
2018-10-16T14:11:57.104Z,69.50
2018-10-16T14:14:34.955Z,69.50
2018-10-16T14:17:11.374Z,70.60
2018-10-16T14:19:46.850Z,69.20
2018-10-16T14:22:24.649Z,69.20
2018-10-16T14:25:00.412Z,70.00
2018-10-16T14:27:37.388Z,69.60
2018-10-16T14:30:15.599Z,69.40
2018-10-16T14:32:50.870Z,68.10
2018-10-16T14:35:26.098Z,67.60
2018-10-16T14:38:01.997Z,69.10
2018-10-16T14:40:43.918Z,69.50
2018-10-16T14:43:22.274Z,68.40
2018-10-16T14:45:57.662Z,67.30
2018-10-16T14:48:33.567Z,69.90
2018-10-16T14:51:10.131Z,68.90
2018-10-16T14:53:47.018Z,68.00
2018-10-16T14:56:22.192Z,71.40
2018-10-16T14:58:58.294Z,70.30
2018-10-16T15:01:34.755Z,70.00
2018-10-16T15:04:10.080Z,71.10
2018-10-16T15:06:48.280Z,68.70
2018-10-16T15:09:26.114Z,71.00
2018-10-16T15:12:03.333Z,69.70
2018-10-16T15:14:40.307Z,68.90
2018-10-16T15:17:16.131Z,67.40
2018-10-16T15:19:51.220Z,67.40
2018-10-16T15:22:28.736Z,67.20
2018-10-16T15:25:11.553Z,67.80
2018-10-16T15:27:49.501Z,68.90
2018-10-16T15:30:25.449Z,70.40
2018-10-16T15:36:27.045Z,72.30
2018-10-16T15:39:03.708Z,75.80
2018-10-16T15:41:39.820Z,76.80
2018-10-16T15:44:17.918Z,78.40
2018-10-16T15:46:54.355Z,79.60
2018-10-16T15:49:30.969Z,80.00
2018-10-16T15:52:07.937Z,82.90
2018-10-16T15:54:43.740Z,82.40
2018-10-16T15:57:20.528Z,82.90
2018-10-16T15:59:55.836Z,82.80
2018-10-16T16:02:31.403Z,85.60
2018-10-16T16:05:07.177Z,85.00
2018-10-16T16:07:42.952Z,87.60
2018-10-16T16:10:19.267Z,88.00
2018-10-16T16:20:34.373Z,91.40
2018-10-16T16:23:12.024Z,91.90
2018-10-16T16:25:48.264Z,93.20
2018-10-16T16:28:23.288Z,93.80
2018-10-16T16:30:59.104Z,94.20
2018-10-16T16:33:34.397Z,95.20
2018-10-16T16:36:18.223Z,95.80
2018-10-16T16:38:56.633Z,97.50
2018-10-16T16:41:33.103Z,98.00
2018-10-16T16:44:10.886Z,98.70
2018-10-16T16:46:49.676Z,99.90
2018-10-16T16:49:26.569Z,99.90
2018-10-16T16:52:04.082Z,99.90
2018-10-16T16:54:46.101Z,99.90
2018-10-16T16:57:22.192Z,99.90
2018-10-16T16:59:57.971Z,99.90
2018-10-16T17:02:33.753Z,99.90
2018-10-16T17:05:13.938Z,99.90
2018-10-16T17:07:51.183Z,99.90
2018-10-16T17:10:26.213Z,99.90
2018-10-16T17:13:01.650Z,99.90
2018-10-16T17:15:37.571Z,99.90
2018-10-16T17:18:12.938Z,99.90
2018-10-16T17:20:50.923Z,99.90
2018-10-16T17:23:25.819Z,99.90
2018-10-16T17:26:02.648Z,99.90
2018-10-16T17:28:38.766Z,99.90
2018-10-16T17:31:15.894Z,99.90
2018-10-16T17:33:53.508Z,99.90
2018-10-16T17:36:34.686Z,99.90
2018-10-16T17:39:13.524Z,99.90
2018-10-16T17:41:48.551Z,99.90
2018-10-16T17:44:27.502Z,99.90
2018-10-16T17:47:03.467Z,99.90
2018-10-16T17:49:39.433Z,99.90
2018-10-16T17:52:23.474Z,99.90
2018-10-16T17:55:04.165Z,99.90
2018-10-16T17:57:41.986Z,99.90
2018-10-16T18:00:19.992Z,99.90
2018-10-16T18:02:55.464Z,99.90
2018-10-16T18:05:31.681Z,99.90
2018-10-16T18:08:12.016Z,99.90
2018-10-16T18:10:49.950Z,99.90
2018-10-16T18:13:27.107Z,99.90
2018-10-16T18:16:04.641Z,99.90
2018-10-16T18:18:39.763Z,99.90
2018-10-16T18:21:27.580Z,99.90
2018-10-16T18:24:11.478Z,99.90
2018-10-16T18:26:47.279Z,99.90
2018-10-16T18:29:23.978Z,99.90
2018-10-16T18:32:00.638Z,99.90
2018-10-16T18:34:35.833Z,99.90
2018-10-16T18:37:14.265Z,99.90
2018-10-16T18:39:50.196Z,99.90
2018-10-16T18:42:30.629Z,99.90
2018-10-16T18:45:08.151Z,99.90
2018-10-16T18:47:46.241Z,99.90
2018-10-16T18:50:22.490Z,99.90
2018-10-16T18:52:59.793Z,99.90
2018-10-16T18:55:36.498Z,99.90
2018-10-16T18:58:13.828Z,99.90
2018-10-16T19:00:50.216Z,99.90
2018-10-16T19:03:32.158Z,99.90
2018-10-16T19:06:13.097Z,99.90
2018-10-16T19:09:00.530Z,99.90
2018-10-16T19:11:36.023Z,99.90
2018-10-16T19:14:14.412Z,99.90
2018-10-16T19:16:54.031Z,99.90
2018-10-16T19:19:36.556Z,99.90
2018-10-16T19:22:19.574Z,99.90
2018-10-16T19:25:01.514Z,99.90
2018-10-16T19:28:06.850Z,99.90
2018-10-16T19:31:01.889Z,99.90
2018-10-16T19:40:37.788Z,99.90
2018-10-16T19:43:16.412Z,99.90
2018-10-16T19:46:11.810Z,99.90
2018-10-16T19:48:54.517Z,99.90
2018-10-16T19:51:31.154Z,99.90
2018-10-16T19:57:00.828Z,99.90
2018-10-16T19:59:37.573Z,99.90
2018-10-16T20:02:17.407Z,99.90
2018-10-16T20:05:03.560Z,99.90
2018-10-16T20:07:40.810Z,99.90
2018-10-16T20:10:18.553Z,99.90
2018-10-16T20:12:58.174Z,99.90
2018-10-16T20:15:35.813Z,99.90
2018-10-16T20:18:13.654Z,99.90
2018-10-16T20:20:52.182Z,99.90
2018-10-16T20:23:30.027Z,99.90
2018-10-16T20:26:09.436Z,99.90
2018-10-16T20:28:47.459Z,99.90
2018-10-16T20:31:24.409Z,99.90
2018-10-16T20:34:08.971Z,99.90
2018-10-16T20:36:48.481Z,99.90
2018-10-16T20:39:33.229Z,99.90
2018-10-16T20:42:09.896Z,99.90
2018-10-16T20:47:31.747Z,99.90
2018-10-16T20:50:09.805Z,99.90
2018-10-16T20:52:50.403Z,99.90
2018-10-16T20:55:25.576Z,99.90
2018-10-16T20:58:04.749Z,99.90
2018-10-16T21:00:43.826Z,99.90
2018-10-16T21:03:35.543Z,99.90
2018-10-16T21:06:41.520Z,99.90
2018-10-16T21:09:33.101Z,99.90
2018-10-16T21:18:31.251Z,99.90
2018-10-16T21:21:15.306Z,99.90
2018-10-16T21:23:59.635Z,99.90
2018-10-16T21:26:36.174Z,99.90
2018-10-16T21:29:11.816Z,99.90
2018-10-16T21:31:48.226Z,99.90
2018-10-16T21:34:23.628Z,99.90
2018-10-16T21:37:08.345Z,99.90
2018-10-16T21:39:49.411Z,99.90
2018-10-16T21:42:24.649Z,99.90
2018-10-16T21:45:03.946Z,99.90
2018-10-16T21:47:41.671Z,99.90
2018-10-16T21:50:22.706Z,99.90
2018-10-16T21:53:02.011Z,99.90
2018-10-16T21:55:48.092Z,99.90
2018-10-16T21:58:26.936Z,99.90
2018-10-16T22:01:15.333Z,99.90
2018-10-16T22:03:59.273Z,99.90
2018-10-16T22:06:42.165Z,99.90
2018-10-16T22:09:25.057Z,99.90
2018-10-16T22:12:11.945Z,99.90
2018-10-16T22:14:47.866Z,99.90
2018-10-16T22:17:23.802Z,99.90
2018-10-16T22:20:02.249Z,99.90
2018-10-16T22:22:40.371Z,99.90
2018-10-16T22:25:18.459Z,99.90
2018-10-16T22:27:54.519Z,99.90
2018-10-16T22:30:30.439Z,99.90
2018-10-16T22:33:06.705Z,99.90
2018-10-16T22:35:42.490Z,99.90
2018-10-16T22:38:19.654Z,99.90
2018-10-16T22:40:55.357Z,99.90
2018-10-16T22:43:30.961Z,99.90
2018-10-16T22:46:07.234Z,99.90
2018-10-16T22:48:46.192Z,99.90
2018-10-16T22:51:23.360Z,99.90
2018-10-16T22:53:58.362Z,99.90
2018-10-16T22:56:35.644Z,99.90
2018-10-16T22:59:11.656Z,99.90
2018-10-16T23:01:47.767Z,99.90
2018-10-16T23:04:29.140Z,99.90
2018-10-16T23:07:07.208Z,99.90
2018-10-16T23:09:42.707Z,99.90
2018-10-16T23:12:18.238Z,99.90
2018-10-16T23:14:54.000Z,99.90
2018-10-16T23:17:30.749Z,99.90
2018-10-16T23:20:10.645Z,99.90
2018-10-16T23:22:48.275Z,99.90
2018-10-16T23:25:25.287Z,99.90
2018-10-16T23:28:01.589Z,99.90
2018-10-16T23:30:37.260Z,99.90
2018-10-16T23:33:13.905Z,99.90
2018-10-16T23:35:49.952Z,99.90
2018-10-16T23:38:26.624Z,99.90
2018-10-16T23:41:04.261Z,99.90
2018-10-16T23:43:40.755Z,99.90
2018-10-16T23:46:16.860Z,99.90
2018-10-16T23:48:52.726Z,99.90
2018-10-16T23:51:28.884Z,99.90
2018-10-16T23:54:04.194Z,99.90
2018-10-16T23:56:39.494Z,99.90
2018-10-16T23:59:15.001Z,99.90
